createdAt,value
2018-10-05T00:00:29.422Z,8.23
2018-10-05T00:02:58.468Z,8.33
2018-10-05T00:05:27.466Z,7.87
2018-10-05T00:07:56.491Z,8.60
2018-10-05T00:10:25.552Z,8.43
2018-10-05T00:12:54.900Z,8.43
2018-10-05T00:15:23.983Z,9.07
2018-10-05T00:17:54.241Z,7.97
2018-10-05T00:20:23.286Z,8.60
2018-10-05T00:22:52.430Z,8.30
2018-10-05T00:25:21.701Z,8.23
2018-10-05T00:27:51.039Z,8.90
2018-10-05T00:30:20.268Z,8.13
2018-10-05T00:32:49.247Z,9.33
2018-10-05T00:35:18.284Z,8.73
2018-10-05T00:37:47.413Z,8.33
2018-10-05T00:40:16.435Z,8.00
2018-10-05T00:42:45.573Z,8.17
2018-10-05T00:45:14.563Z,9.17
2018-10-05T00:47:43.863Z,8.67
2018-10-05T00:50:12.957Z,9.00
2018-10-05T00:52:42.302Z,8.77
2018-10-05T00:55:11.307Z,8.17
2018-10-05T00:57:40.374Z,8.60
2018-10-05T01:00:09.647Z,8.87
2018-10-05T01:02:38.692Z,8.83
2018-10-05T01:05:07.661Z,8.67
2018-10-05T01:07:36.938Z,8.60
2018-10-05T01:10:06.034Z,8.50
2018-10-05T01:12:35.038Z,9.10
2018-10-05T01:15:05.038Z,8.50
2018-10-05T01:17:34.349Z,8.93
2018-10-05T01:20:03.378Z,9.63
2018-10-05T01:22:32.380Z,9.27
2018-10-05T01:25:01.456Z,9.20
2018-10-05T01:27:30.535Z,8.83
2018-10-05T01:29:59.563Z,8.10
2018-10-05T01:32:28.608Z,8.90
2018-10-05T01:34:58.509Z,8.50
2018-10-05T01:37:27.732Z,9.43
2018-10-05T01:39:56.918Z,8.67
2018-10-05T01:42:25.925Z,8.70
2018-10-05T01:44:54.917Z,9.10
2018-10-05T01:47:23.924Z,8.87
2018-10-05T01:49:53.792Z,9.53
2018-10-05T01:52:22.790Z,8.67
2018-10-05T01:54:52.220Z,9.00
2018-10-05T01:57:21.649Z,9.30
2018-10-05T01:59:50.838Z,8.53
2018-10-05T02:02:20.130Z,8.80
2018-10-05T02:04:49.526Z,9.80
2018-10-05T02:07:18.540Z,8.97
2018-10-05T02:09:47.533Z,9.07
2018-10-05T02:12:16.525Z,8.77
2018-10-05T02:14:45.500Z,8.83
2018-10-05T02:17:14.490Z,8.53
2018-10-05T02:19:43.503Z,9.87
2018-10-05T02:22:12.499Z,8.43
2018-10-05T02:24:41.502Z,9.07
2018-10-05T02:27:10.523Z,9.13
2018-10-05T02:29:39.516Z,8.50
2018-10-05T02:32:08.492Z,8.77
2018-10-05T02:34:37.493Z,8.23
2018-10-05T02:37:06.533Z,9.03
2018-10-05T02:39:35.821Z,8.30
2018-10-05T02:42:05.115Z,8.57
2018-10-05T02:44:34.321Z,8.90
2018-10-05T02:47:03.353Z,8.30
2018-10-05T02:49:32.355Z,8.37
2018-10-05T02:52:01.353Z,8.67
2018-10-05T02:54:30.562Z,8.10
2018-10-05T02:57:00.018Z,9.00
2018-10-05T02:59:29.254Z,8.90
2018-10-05T03:02:15.533Z,7.53
2018-10-05T03:04:44.532Z,8.20
2018-10-05T03:07:13.633Z,7.40
2018-10-05T03:09:42.859Z,8.03
2018-10-05T03:12:11.835Z,8.43
2018-10-05T03:14:40.852Z,7.53
2018-10-05T03:17:09.859Z,7.60
2018-10-05T03:19:39.385Z,8.10
2018-10-05T03:22:08.637Z,7.37
2018-10-05T03:24:37.633Z,8.40
2018-10-05T03:27:06.723Z,7.70
2018-10-05T03:29:35.954Z,8.03
2018-10-05T03:32:04.966Z,8.17
2018-10-05T03:34:34.410Z,8.23
2018-10-05T03:37:03.647Z,7.93
2018-10-05T03:39:32.661Z,8.70
2018-10-05T03:42:02.158Z,8.63
2018-10-05T03:44:31.143Z,8.53
2018-10-05T03:47:00.129Z,8.77
2018-10-05T03:49:29.134Z,9.23
2018-10-05T03:51:58.697Z,9.77
2018-10-05T03:54:27.711Z,9.37
2018-10-05T03:56:56.746Z,9.83
2018-10-05T03:59:25.786Z,9.20
2018-10-05T04:01:54.778Z,9.20
2018-10-05T04:04:23.787Z,9.50
2018-10-05T04:06:52.831Z,9.13
2018-10-05T04:09:21.961Z,9.00
2018-10-05T04:11:51.226Z,8.80
2018-10-05T04:14:20.479Z,8.77
2018-10-05T04:16:49.477Z,9.40
2018-10-05T04:19:18.502Z,9.37
2018-10-05T04:21:47.487Z,9.43
2018-10-05T04:24:16.542Z,9.37
2018-10-05T04:26:45.859Z,10.00
2018-10-05T04:29:15.138Z,10.07
2018-10-05T04:31:44.167Z,9.77
2018-10-05T04:34:13.679Z,8.27
2018-10-05T04:36:42.675Z,8.60
2018-10-05T04:39:11.714Z,9.30
2018-10-05T04:41:40.733Z,8.80
2018-10-05T04:44:10.255Z,10.13
2018-10-05T04:46:39.260Z,10.17
2018-10-05T04:49:08.356Z,10.00
2018-10-05T04:51:37.355Z,9.90
2018-10-05T04:54:06.719Z,8.57
2018-10-05T04:56:35.736Z,9.90
2018-10-05T04:59:04.851Z,9.07
2018-10-05T05:01:34.034Z,9.20
2018-10-05T05:04:03.041Z,9.40
2018-10-05T05:06:33.286Z,8.77
2018-10-05T05:09:02.506Z,11.57
2018-10-05T05:11:31.714Z,9.37
2018-10-05T05:14:00.754Z,9.53
2018-10-05T05:16:30.165Z,9.90
2018-10-05T05:18:59.191Z,9.10
2018-10-05T05:21:28.570Z,8.87
2018-10-05T05:23:57.656Z,8.83
2018-10-05T05:26:27.362Z,9.97
2018-10-05T05:28:57.272Z,9.27
2018-10-05T05:31:26.306Z,10.50
2018-10-05T05:33:55.338Z,9.47
2018-10-05T05:36:24.525Z,9.70
2018-10-05T05:38:53.534Z,10.37
2018-10-05T05:41:22.553Z,10.23
2018-10-05T05:43:51.694Z,9.07
2018-10-05T05:46:20.971Z,8.63
2018-10-05T05:48:50.226Z,8.83
2018-10-05T05:51:19.468Z,9.00
2018-10-05T05:53:49.005Z,9.40
2018-10-05T05:56:18.665Z,12.03
2018-10-05T05:58:47.949Z,8.47
2018-10-05T06:01:17.729Z,8.83
2018-10-05T06:03:46.903Z,8.73
2018-10-05T06:06:16.539Z,9.00
2018-10-05T06:08:45.731Z,9.20
2018-10-05T06:11:14.723Z,8.73
2018-10-05T06:13:43.995Z,7.90
2018-10-05T06:16:13.331Z,9.33
2018-10-05T06:18:42.263Z,13.17
2018-10-05T06:21:11.286Z,9.23
2018-10-05T06:23:40.294Z,7.43
2018-10-05T06:26:09.552Z,7.47
2018-10-05T06:28:38.827Z,8.63
2018-10-05T06:31:08.154Z,8.13
2018-10-05T06:33:37.132Z,7.17
2018-10-05T06:36:06.378Z,7.63
2018-10-05T06:38:35.455Z,8.13
2018-10-05T06:41:04.714Z,7.63
2018-10-05T06:43:33.740Z,8.60
2018-10-05T06:46:03.118Z,8.10
2018-10-05T06:48:32.122Z,7.53
2018-10-05T06:51:01.178Z,7.80
2018-10-05T06:53:30.223Z,7.37
2018-10-05T06:55:59.662Z,6.87
2018-10-05T06:58:28.699Z,7.93
2018-10-05T07:00:57.718Z,8.63
2018-10-05T07:03:26.714Z,9.40
2018-10-05T07:05:55.755Z,9.57
2018-10-05T07:08:25.000Z,9.30
2018-10-05T07:10:54.208Z,9.40
2018-10-05T07:13:23.719Z,9.70
2018-10-05T07:15:52.803Z,9.97
2018-10-05T07:18:21.761Z,8.73
2018-10-05T07:20:50.878Z,8.27
2018-10-05T07:23:20.121Z,8.00
2018-10-05T07:25:49.134Z,7.90
2018-10-05T07:28:18.633Z,7.87
2018-10-05T07:30:48.066Z,7.90
2018-10-05T07:33:17.349Z,7.70
2018-10-05T07:35:46.404Z,7.23
2018-10-05T07:38:15.698Z,7.00
2018-10-05T07:40:44.862Z,6.63
2018-10-05T07:43:14.680Z,7.70
2018-10-05T07:45:44.510Z,6.87
2018-10-05T07:48:13.656Z,7.13
2018-10-05T07:50:42.770Z,6.53
2018-10-05T07:53:11.812Z,7.20
2018-10-05T07:55:41.049Z,7.43
2018-10-05T07:58:10.073Z,7.07
2018-10-05T08:00:39.390Z,7.97
2018-10-05T08:03:08.743Z,7.50
2018-10-05T08:05:37.808Z,7.07
2018-10-05T08:08:08.095Z,6.10
2018-10-05T08:10:37.147Z,6.53
2018-10-05T08:13:06.393Z,7.07
2018-10-05T08:15:37.552Z,6.23
2018-10-05T08:18:10.657Z,5.40
2018-10-05T08:20:43.971Z,6.53
2018-10-05T08:23:14.664Z,6.07
2018-10-05T08:25:43.666Z,6.70
2018-10-05T08:28:15.688Z,5.57
2018-10-05T08:30:53.538Z,4.80
2018-10-05T08:33:22.787Z,5.83
2018-10-05T08:35:52.231Z,5.47
2018-10-05T08:38:21.312Z,5.03
2018-10-05T08:40:50.846Z,4.70
2018-10-05T08:43:19.882Z,4.97
2018-10-05T08:45:48.938Z,4.70
2018-10-05T08:48:17.994Z,5.13
2018-10-05T08:50:47.015Z,4.83
2018-10-05T08:53:16.282Z,4.20
2018-10-05T08:55:45.490Z,4.10
2018-10-05T08:58:14.566Z,4.17
2018-10-05T09:00:43.663Z,4.10
2018-10-05T09:03:12.951Z,3.73
2018-10-05T09:05:42.192Z,3.90
2018-10-05T09:08:11.131Z,3.80
2018-10-05T09:10:41.124Z,3.47
2018-10-05T09:13:10.199Z,3.80
2018-10-05T09:15:39.281Z,4.47
2018-10-05T09:18:08.320Z,3.97
2018-10-05T09:20:37.330Z,3.70
2018-10-05T09:23:06.640Z,3.60
2018-10-05T09:25:35.866Z,3.40
2018-10-05T09:28:04.954Z,3.07
2018-10-05T09:30:34.041Z,3.13
2018-10-05T09:33:03.007Z,2.77
2018-10-05T09:35:33.871Z,3.10
2018-10-05T09:38:02.957Z,3.03
2018-10-05T09:40:32.206Z,2.73
2018-10-05T09:43:01.230Z,2.17
2018-10-05T09:45:30.715Z,2.63
2018-10-05T09:48:02.197Z,2.30
2018-10-05T09:50:31.372Z,1.80
2018-10-05T09:53:00.868Z,2.60
2018-10-05T09:55:29.911Z,2.30
2018-10-05T09:57:59.303Z,2.87
2018-10-05T10:00:33.602Z,3.80
2018-10-05T10:03:08.790Z,3.70
2018-10-05T10:05:37.842Z,2.10
2018-10-05T10:08:07.190Z,2.70
2018-10-05T10:10:36.082Z,4.00
2018-10-05T10:13:05.215Z,3.03
2018-10-05T10:15:34.448Z,2.87
2018-10-05T10:18:03.584Z,2.30
2018-10-05T10:20:32.678Z,2.43
2018-10-05T10:23:01.673Z,2.33
2018-10-05T10:25:30.946Z,2.17
2018-10-05T10:28:00.153Z,2.90
2018-10-05T10:30:29.537Z,3.00
2018-10-05T10:32:58.546Z,3.27
2018-10-05T10:35:27.590Z,3.40
2018-10-05T10:37:56.690Z,3.00
2018-10-05T10:40:25.714Z,3.03
2018-10-05T10:42:54.923Z,3.60
2018-10-05T10:45:23.933Z,3.20
2018-10-05T10:47:53.047Z,2.90
2018-10-05T10:50:22.324Z,2.70
2018-10-05T10:52:51.862Z,3.33
2018-10-05T10:55:20.888Z,2.30
2018-10-05T10:57:50.478Z,2.60
2018-10-05T11:00:19.495Z,2.70
2018-10-05T11:02:48.499Z,2.73
2018-10-05T11:05:17.572Z,2.43
2018-10-05T11:07:46.579Z,5.33
2018-10-05T11:10:15.589Z,2.93
2018-10-05T11:12:45.269Z,2.90
2018-10-05T11:15:14.307Z,3.00
2018-10-05T11:17:43.317Z,3.00
2018-10-05T11:20:12.527Z,2.80
2018-10-05T11:22:41.643Z,3.10
2018-10-05T11:25:10.899Z,3.57
2018-10-05T11:27:39.916Z,3.43
2018-10-05T11:30:09.570Z,3.00
2018-10-05T11:32:38.752Z,3.20
2018-10-05T11:35:08.003Z,2.70
2018-10-05T11:37:37.224Z,2.73
2018-10-05T11:40:06.541Z,2.80
2018-10-05T11:42:35.721Z,3.10
2018-10-05T11:45:04.852Z,3.10
2018-10-05T11:47:34.636Z,3.63
2018-10-05T11:50:03.665Z,3.93
2018-10-05T11:52:32.982Z,3.33
2018-10-05T11:55:01.935Z,3.77
2018-10-05T11:57:31.014Z,3.70
2018-10-05T12:00:00.043Z,3.87
2018-10-05T12:02:29.091Z,4.17
2018-10-05T12:04:58.141Z,6.77
2018-10-05T12:07:27.214Z,4.60
2018-10-05T12:09:56.518Z,4.70
2018-10-05T12:12:25.527Z,4.50
2018-10-05T12:14:54.576Z,5.73
2018-10-05T12:17:23.658Z,5.13
2018-10-05T12:19:52.731Z,4.10
2018-10-05T12:22:21.774Z,4.93
2018-10-05T12:24:50.819Z,5.03
2018-10-05T12:27:19.859Z,5.37
2018-10-05T12:29:49.002Z,6.40
2018-10-05T12:32:17.998Z,4.00
2018-10-05T12:34:47.020Z,3.60
2018-10-05T12:37:16.141Z,3.80
2018-10-05T12:39:45.231Z,3.83
2018-10-05T12:42:14.334Z,3.53
2018-10-05T12:44:43.460Z,3.93
2018-10-05T12:47:12.484Z,3.70
2018-10-05T12:49:41.521Z,4.53
2018-10-05T12:52:10.538Z,3.53
2018-10-05T12:54:39.793Z,4.33
2018-10-05T12:57:08.905Z,3.63
2018-10-05T12:59:37.936Z,4.10
2018-10-05T13:02:07.071Z,4.00
2018-10-05T13:04:36.134Z,3.37
2018-10-05T13:07:05.268Z,3.97
2018-10-05T13:09:34.357Z,3.70
2018-10-05T13:12:03.618Z,3.50
2018-10-05T13:14:32.636Z,3.47
2018-10-05T13:17:01.698Z,3.70
2018-10-05T13:19:30.814Z,3.10
2018-10-05T13:22:00.101Z,3.23
2018-10-05T13:24:29.064Z,3.20
2018-10-05T13:26:58.116Z,3.27
2018-10-05T13:29:27.188Z,3.57
2018-10-05T13:31:56.244Z,3.93
2018-10-05T13:34:25.271Z,3.80
2018-10-05T13:36:54.425Z,3.30
2018-10-05T13:39:23.412Z,3.30
2018-10-05T13:41:52.433Z,3.80
2018-10-05T13:44:21.426Z,4.13
2018-10-05T13:46:50.455Z,3.70
2018-10-05T13:49:19.619Z,2.97
2018-10-05T13:51:48.825Z,3.20
2018-10-05T13:54:17.902Z,9.87
2018-10-05T13:56:46.967Z,5.37
2018-10-05T13:59:15.978Z,3.30
2018-10-05T14:01:44.987Z,3.00
2018-10-05T14:04:13.989Z,3.20
2018-10-05T14:06:43.033Z,3.90
2018-10-05T14:09:12.046Z,3.30
2018-10-05T14:11:41.282Z,3.60
2018-10-05T14:14:10.295Z,3.20
2018-10-05T14:16:39.346Z,3.40
2018-10-05T14:19:08.746Z,3.20
2018-10-05T14:21:37.852Z,3.63
2018-10-05T14:24:06.951Z,3.57
2018-10-05T14:26:36.080Z,3.70
2018-10-05T14:29:05.241Z,3.80
2018-10-05T14:31:34.255Z,3.10
2018-10-05T14:34:04.436Z,3.30
2018-10-05T14:36:33.740Z,3.33
2018-10-05T14:39:02.792Z,3.87
2018-10-05T14:41:31.862Z,3.20
2018-10-05T14:44:01.039Z,3.27
2018-10-05T14:46:30.040Z,3.20
2018-10-05T14:48:59.117Z,3.17
2018-10-05T14:51:29.254Z,3.40
2018-10-05T14:53:59.305Z,3.47
2018-10-05T14:56:28.909Z,3.60
2018-10-05T14:58:58.787Z,3.40
2018-10-05T15:01:29.031Z,3.10
2018-10-05T15:03:58.325Z,3.50
2018-10-05T15:06:29.556Z,2.90
2018-10-05T15:09:00.272Z,3.97
2018-10-05T15:11:30.006Z,3.50
2018-10-05T15:13:59.279Z,3.43
2018-10-05T15:16:29.463Z,3.40
2018-10-05T15:18:59.412Z,4.87
2018-10-05T15:21:28.545Z,3.37
2018-10-05T15:23:58.758Z,3.83
2018-10-05T15:26:28.177Z,3.97
2018-10-05T15:28:59.301Z,3.40
2018-10-05T15:31:28.610Z,4.03
2018-10-05T15:33:58.459Z,3.90
2018-10-05T15:36:27.555Z,3.80
2018-10-05T15:38:56.934Z,3.83
2018-10-05T15:41:26.928Z,4.43
2018-10-05T15:43:55.958Z,3.67
2018-10-05T15:47:09.341Z,4.10
2018-10-05T15:49:39.547Z,3.47
2018-10-05T15:52:08.818Z,3.87
2018-10-05T15:54:37.976Z,3.63
2018-10-05T15:57:07.159Z,4.37
2018-10-05T15:59:36.840Z,3.90
2018-10-05T16:02:05.902Z,4.33
2018-10-05T16:04:34.914Z,4.77
2018-10-05T16:07:04.168Z,4.37
2018-10-05T16:09:33.279Z,7.50
2018-10-05T16:12:02.464Z,5.67
2018-10-05T16:14:31.625Z,4.40
2018-10-05T16:17:01.003Z,4.37
2018-10-05T16:19:30.239Z,4.97
2018-10-05T16:22:00.062Z,4.00
2018-10-05T16:24:45.066Z,4.40
2018-10-05T16:27:14.254Z,5.30
2018-10-05T16:29:43.606Z,4.73
2018-10-05T16:32:13.220Z,4.73
2018-10-05T16:34:42.465Z,38.83
2018-10-05T16:37:11.500Z,105.23
2018-10-05T16:39:40.710Z,41.37
2018-10-05T16:42:09.852Z,29.70
2018-10-05T16:44:39.079Z,8.70
2018-10-05T16:47:08.081Z,6.97
2018-10-05T16:49:37.112Z,6.73
2018-10-05T16:52:06.310Z,5.77
2018-10-05T16:54:35.566Z,5.13
2018-10-05T16:57:04.692Z,5.87
2018-10-05T16:59:33.811Z,6.40
2018-10-05T17:02:02.999Z,7.03
2018-10-05T17:04:32.606Z,6.43
2018-10-05T17:07:01.638Z,19.03
2018-10-05T17:09:30.978Z,11.10
2018-10-05T17:12:00.027Z,9.80
2018-10-05T17:14:29.055Z,8.23
2018-10-05T17:16:58.448Z,7.40
2018-10-05T17:19:27.406Z,7.13
2018-10-05T17:21:56.678Z,6.20
2018-10-05T17:24:25.915Z,5.93
2018-10-05T17:26:54.936Z,6.27
2018-10-05T17:29:23.999Z,5.47
2018-10-05T17:31:53.375Z,5.20
2018-10-05T17:34:22.649Z,5.57
2018-10-05T17:36:51.961Z,5.10
2018-10-05T17:39:21.658Z,6.40
2018-10-05T17:41:50.759Z,5.70
2018-10-05T17:44:19.790Z,21.77
2018-10-05T17:46:49.039Z,7.10
2018-10-05T17:49:18.190Z,7.37
2018-10-05T17:51:48.107Z,6.47
2018-10-05T17:54:17.232Z,31.30
2018-10-05T17:56:46.463Z,15.23
2018-10-05T17:59:15.553Z,10.43
2018-10-05T18:01:44.859Z,50.13
2018-10-05T18:04:13.874Z,84.17
2018-10-05T18:06:42.888Z,31.27
2018-10-05T18:09:11.987Z,28.43
2018-10-05T18:11:41.278Z,21.50
2018-10-05T18:14:10.461Z,19.00
2018-10-05T18:16:39.840Z,37.63
2018-10-05T18:19:08.830Z,49.90
2018-10-05T18:21:38.069Z,32.13
2018-10-05T18:24:07.442Z,36.80
2018-10-05T18:26:36.438Z,12.33
2018-10-05T18:29:05.450Z,15.93
2018-10-05T18:31:34.632Z,9.50
2018-10-05T18:34:03.733Z,7.40
2018-10-05T18:36:33.014Z,11.37
2018-10-05T18:39:03.082Z,32.33
2018-10-05T18:41:32.132Z,46.10
2018-10-05T18:46:37.120Z,30.73
2018-10-05T18:49:06.516Z,21.10
2018-10-05T18:51:35.632Z,11.57
2018-10-05T18:54:05.065Z,13.13
2018-10-05T18:56:51.269Z,57.80
2018-10-05T18:59:21.289Z,23.03
2018-10-05T19:01:50.559Z,21.90
2018-10-05T19:04:19.599Z,27.77
2018-10-05T19:06:48.741Z,20.60
2018-10-05T19:09:17.894Z,13.90
2018-10-05T19:11:47.640Z,38.73
2018-10-05T19:14:16.845Z,30.00
2018-10-05T19:16:45.937Z,40.07
2018-10-05T19:19:14.981Z,15.40
2018-10-05T19:21:44.424Z,17.10
2018-10-05T19:24:14.112Z,17.77
2018-10-05T19:26:43.836Z,23.87
2018-10-05T19:29:12.835Z,98.83
2018-10-05T19:31:42.134Z,44.00
2018-10-05T19:34:11.979Z,31.63
2018-10-05T19:36:41.745Z,30.73
2018-10-05T19:39:12.090Z,26.73
2018-10-05T19:41:42.329Z,21.00
2018-10-05T19:44:11.945Z,128.80
2018-10-05T19:46:41.789Z,54.80
2018-10-05T19:49:11.507Z,50.30
2018-10-05T19:51:41.014Z,34.83
2018-10-05T19:54:10.583Z,30.10
2018-10-05T19:56:39.607Z,11.03
2018-10-05T19:59:09.823Z,16.00
2018-10-05T20:01:40.174Z,56.33
2018-10-05T20:04:09.701Z,15.17
2018-10-05T20:06:40.360Z,9.67
2018-10-05T20:09:09.997Z,10.83
2018-10-05T20:11:39.678Z,13.23
2018-10-05T20:14:09.199Z,10.20
2018-10-05T20:16:38.756Z,8.67
2018-10-05T20:19:07.823Z,12.10
2018-10-05T20:21:37.677Z,12.03
2018-10-05T20:24:07.473Z,17.03
2018-10-05T20:26:36.964Z,9.00
2018-10-05T20:29:06.386Z,9.53
2018-10-05T20:31:35.379Z,8.53
2018-10-05T20:34:05.159Z,20.50
2018-10-05T20:36:35.284Z,13.33
2018-10-05T20:39:06.428Z,9.57
2018-10-05T20:41:36.508Z,8.20
2018-10-05T20:44:05.842Z,8.27
2018-10-05T20:46:34.981Z,6.83
2018-10-05T20:49:04.366Z,7.00
2018-10-05T20:51:33.673Z,6.80
2018-10-05T20:54:03.294Z,8.20
2018-10-05T20:56:33.509Z,7.53
2018-10-05T20:59:04.018Z,8.37
2018-10-05T21:01:33.933Z,7.70
2018-10-05T21:04:05.919Z,12.87
2018-10-05T21:06:35.702Z,12.60
2018-10-05T21:09:07.253Z,8.63
2018-10-05T21:11:37.552Z,9.27
2018-10-05T21:14:07.862Z,10.63
2018-10-05T21:16:36.958Z,11.43
2018-10-05T21:19:07.181Z,7.43
2018-10-05T21:21:36.358Z,11.43
2018-10-05T21:24:05.726Z,10.53
2018-10-05T21:26:36.676Z,14.20
2018-10-05T21:29:06.215Z,12.63
2018-10-05T21:31:38.172Z,11.77
2018-10-05T21:34:08.113Z,10.70
2018-10-05T21:36:37.685Z,8.53
2018-10-05T21:39:09.522Z,10.93
2018-10-05T21:41:38.820Z,10.13
2018-10-05T21:44:08.073Z,8.77
2018-10-05T21:46:37.160Z,6.53
2018-10-05T21:49:06.200Z,6.60
2018-10-05T21:51:35.235Z,7.43
2018-10-05T21:54:04.270Z,7.60
2018-10-05T21:56:33.523Z,10.53
2018-10-05T21:59:02.674Z,11.40
2018-10-05T22:01:33.347Z,28.17
2018-10-05T22:04:02.463Z,16.60
2018-10-05T22:06:31.574Z,10.83
2018-10-05T22:09:00.583Z,17.73
2018-10-05T22:11:29.611Z,15.63
2018-10-05T22:13:58.696Z,7.57
2018-10-05T22:16:28.074Z,7.07
2018-10-05T22:18:57.226Z,8.57
2018-10-05T22:21:26.587Z,13.03
2018-10-05T22:23:55.625Z,10.30
2018-10-05T22:26:24.686Z,12.00
2018-10-05T22:28:54.040Z,10.80
2018-10-05T22:31:23.111Z,9.97
2018-10-05T22:33:52.223Z,9.60
2018-10-05T22:36:21.913Z,10.00
2018-10-05T22:38:50.923Z,10.20
2018-10-05T22:41:20.134Z,12.10
2018-10-05T22:43:49.770Z,14.97
2018-10-05T22:46:19.283Z,13.83
2018-10-05T22:48:48.413Z,9.97
2018-10-05T22:51:17.473Z,10.60
2018-10-05T22:53:46.471Z,6.90
2018-10-05T22:56:15.506Z,7.60
2018-10-05T22:58:44.561Z,6.83
2018-10-05T23:01:13.564Z,9.57
2018-10-05T23:03:42.560Z,7.10
2018-10-05T23:06:11.837Z,8.87
2018-10-05T23:08:40.834Z,8.30
2018-10-05T23:11:10.095Z,9.90
2018-10-05T23:13:39.152Z,10.03
2018-10-05T23:16:08.378Z,7.73
2018-10-05T23:18:37.378Z,7.10
2018-10-05T23:21:06.933Z,13.40
2018-10-05T23:23:35.939Z,9.43
2018-10-05T23:26:04.941Z,10.67
2018-10-05T23:28:34.157Z,7.90
2018-10-05T23:31:03.266Z,9.40
2018-10-05T23:33:32.508Z,14.03
2018-10-05T23:36:01.737Z,8.50
2018-10-05T23:38:30.767Z,16.00
2018-10-05T23:40:59.803Z,14.67
2018-10-05T23:43:28.825Z,12.27
2018-10-05T23:45:57.863Z,14.93
2018-10-05T23:48:27.171Z,13.17
2018-10-05T23:50:56.408Z,14.10
2018-10-05T23:53:25.744Z,12.70
2018-10-05T23:55:55.341Z,13.57
2018-10-05T23:58:24.346Z,11.53
